createdAt,value
2018-02-19T00:00:43.740Z,50.57
2018-02-19T00:03:11.215Z,57.47
2018-02-19T00:05:38.705Z,61.67
2018-02-19T00:08:06.182Z,58.73
2018-02-19T00:10:33.688Z,64.83
2018-02-19T00:13:01.165Z,67.33
2018-02-19T00:15:28.646Z,62.53
2018-02-19T00:17:56.118Z,67.57
2018-02-19T00:20:23.616Z,65.17
2018-02-19T00:22:51.092Z,76.83
2018-02-19T00:25:18.583Z,65.53
2018-02-19T00:27:46.056Z,65.10
2018-02-19T00:30:13.541Z,67.27
2018-02-19T00:32:41.067Z,69.90
2018-02-19T00:35:08.530Z,62.03
2018-02-19T00:37:36.007Z,64.23
2018-02-19T00:40:03.498Z,59.50
2018-02-19T00:42:30.968Z,63.93
2018-02-19T00:44:58.455Z,64.27
2018-02-19T00:47:25.928Z,70.20
2018-02-19T00:49:53.429Z,59.10
2018-02-19T00:52:20.898Z,56.13
2018-02-19T00:54:48.369Z,62.53
2018-02-19T00:57:15.878Z,65.27
2018-02-19T00:59:43.344Z,67.17
2018-02-19T01:02:10.834Z,70.50
2018-02-19T01:04:38.359Z,70.43
2018-02-19T01:07:05.845Z,77.00
2018-02-19T01:09:33.318Z,67.77
2018-02-19T01:12:00.804Z,68.37
2018-02-19T01:14:29.227Z,68.37
2018-02-19T01:16:56.724Z,65.80
2018-02-19T01:19:24.206Z,63.50
2018-02-19T01:21:51.702Z,62.90
2018-02-19T01:24:19.180Z,66.60
2018-02-19T01:26:46.672Z,60.50
2018-02-19T01:29:14.138Z,68.77
2018-02-19T01:31:41.658Z,60.23
2018-02-19T01:34:09.138Z,53.33
2018-02-19T01:36:36.628Z,53.47
2018-02-19T01:39:04.102Z,64.40
2018-02-19T01:41:31.591Z,57.97
2018-02-19T01:43:59.068Z,59.13
2018-02-19T01:46:26.556Z,55.27
2018-02-19T01:48:54.029Z,54.73
2018-02-19T01:51:21.522Z,59.73
2018-02-19T01:53:48.992Z,59.87
2018-02-19T01:56:16.479Z,53.93
2018-02-19T01:58:43.947Z,55.73
2018-02-19T02:01:11.434Z,53.67
2018-02-19T02:03:38.903Z,52.17
2018-02-19T02:06:06.394Z,50.23
2018-02-19T02:08:33.879Z,57.30
2018-02-19T02:11:01.367Z,52.10
2018-02-19T02:13:28.845Z,53.43
2018-02-19T02:15:56.336Z,55.30
2018-02-19T02:18:23.807Z,55.83
2018-02-19T02:20:51.278Z,59.03
2018-02-19T02:23:18.776Z,55.27
2018-02-19T02:25:46.249Z,57.07
2018-02-19T02:28:13.745Z,53.73
2018-02-19T02:30:41.224Z,57.53
2018-02-19T02:33:08.720Z,54.73
2018-02-19T02:35:36.192Z,62.03
2018-02-19T02:38:03.683Z,56.87
2018-02-19T02:40:31.164Z,60.10
2018-02-19T02:42:58.659Z,57.00
2018-02-19T02:45:26.133Z,62.47
2018-02-19T02:47:53.635Z,65.60
2018-02-19T02:50:21.111Z,65.77
2018-02-19T02:52:48.595Z,66.53
2018-02-19T02:55:16.069Z,63.13
2018-02-19T02:57:43.559Z,65.97
2018-02-19T03:00:11.033Z,60.60
2018-02-19T03:02:38.524Z,70.23
2018-02-19T03:05:05.993Z,75.13
2018-02-19T03:07:33.484Z,69.13
2018-02-19T03:10:00.951Z,75.67
2018-02-19T03:12:28.434Z,61.47
2018-02-19T03:14:55.904Z,70.50
2018-02-19T03:17:23.395Z,68.37
2018-02-19T03:19:50.862Z,76.73
2018-02-19T03:22:18.359Z,68.00
2018-02-19T03:24:45.836Z,64.53
2018-02-19T03:27:13.336Z,71.70
2018-02-19T03:29:40.805Z,71.47
2018-02-19T03:32:08.295Z,68.43
2018-02-19T03:34:35.763Z,69.90
2018-02-19T03:37:03.251Z,75.47
2018-02-19T03:39:30.734Z,68.83
2018-02-19T03:41:58.228Z,64.43
2018-02-19T03:44:25.702Z,71.00
2018-02-19T03:46:53.175Z,63.07
2018-02-19T03:49:20.672Z,63.50
2018-02-19T03:51:48.150Z,57.53
2018-02-19T03:54:15.648Z,66.80
2018-02-19T03:56:43.134Z,63.80
2018-02-19T03:59:10.618Z,65.30
2018-02-19T04:01:38.091Z,60.33
2018-02-19T04:04:05.574Z,60.60
2018-02-19T04:06:33.043Z,60.70
2018-02-19T04:09:00.533Z,59.20
2018-02-19T04:11:28.002Z,62.77
2018-02-19T04:13:55.491Z,66.67
2018-02-19T04:16:22.954Z,56.63
2018-02-19T04:18:50.444Z,59.83
2018-02-19T04:21:18.569Z,62.90
2018-02-19T04:23:46.100Z,63.63
2018-02-19T04:26:13.563Z,56.13
2018-02-19T04:28:41.058Z,53.83
2018-02-19T04:31:08.547Z,57.33
2018-02-19T04:33:36.044Z,56.43
2018-02-19T04:36:03.563Z,58.07
2018-02-19T04:38:31.051Z,53.73
2018-02-19T04:40:58.514Z,52.03
2018-02-19T04:43:26.004Z,54.50
2018-02-19T04:46:01.995Z,51.87
2018-02-19T04:48:36.679Z,49.37
2018-02-19T04:51:04.148Z,48.70
2018-02-19T04:53:31.690Z,52.47
2018-02-19T04:55:59.160Z,48.90
2018-02-19T04:58:26.653Z,47.33
2018-02-19T05:00:54.133Z,43.97
2018-02-19T05:03:21.632Z,44.27
2018-02-19T05:05:49.102Z,45.83
2018-02-19T05:08:16.595Z,43.10
2018-02-19T05:10:44.059Z,42.97
2018-02-19T05:13:11.548Z,39.17
2018-02-19T05:15:39.024Z,42.23
2018-02-19T05:18:06.516Z,42.23
2018-02-19T05:20:33.992Z,37.90
2018-02-19T05:23:01.499Z,37.73
2018-02-19T05:25:28.963Z,35.07
2018-02-19T05:27:56.438Z,39.17
2018-02-19T05:30:23.939Z,38.20
2018-02-19T05:32:51.416Z,36.10
2018-02-19T05:35:18.910Z,38.23
2018-02-19T05:37:46.374Z,40.47
2018-02-19T05:40:13.866Z,38.43
2018-02-19T05:42:41.343Z,35.60
2018-02-19T05:45:08.840Z,36.63
2018-02-19T05:47:36.365Z,36.00
2018-02-19T05:50:03.838Z,32.63
2018-02-19T05:52:31.306Z,36.37
2018-02-19T05:54:59.251Z,35.00
2018-02-19T05:57:26.716Z,36.37
2018-02-19T05:59:54.211Z,33.13
2018-02-19T06:02:21.685Z,31.90
2018-02-19T06:04:49.182Z,33.20
2018-02-19T06:07:16.676Z,31.43
2018-02-19T06:09:44.174Z,34.60
2018-02-19T06:12:11.652Z,32.80
2018-02-19T06:14:39.143Z,31.20
2018-02-19T06:17:06.621Z,31.63
2018-02-19T06:19:34.122Z,30.53
2018-02-19T06:22:01.599Z,32.73
2018-02-19T06:24:29.092Z,31.17
2018-02-19T06:26:56.572Z,33.03
2018-02-19T06:29:24.662Z,28.47
2018-02-19T06:31:52.143Z,31.27
2018-02-19T06:34:19.652Z,34.53
2018-02-19T06:36:47.112Z,33.10
2018-02-19T06:39:14.608Z,33.67
2018-02-19T06:41:42.092Z,33.03
2018-02-19T06:44:10.363Z,34.77
2018-02-19T06:46:38.775Z,38.20
2018-02-19T06:49:06.239Z,35.23
2018-02-19T06:51:33.736Z,35.63
2018-02-19T06:54:01.215Z,35.60
2018-02-19T06:56:28.709Z,36.40
2018-02-19T06:58:56.200Z,35.23
2018-02-19T07:01:23.703Z,37.40
2018-02-19T07:03:51.180Z,36.93
2018-02-19T07:06:18.755Z,37.77
2018-02-19T07:08:46.217Z,38.17
2018-02-19T07:11:13.711Z,37.87
2018-02-19T07:13:41.188Z,40.27
2018-02-19T07:16:08.680Z,37.13
2018-02-19T07:18:36.146Z,42.13
2018-02-19T07:21:03.676Z,36.57
2018-02-19T07:23:31.395Z,38.10
2018-02-19T07:25:58.900Z,37.63
2018-02-19T07:28:26.371Z,37.83
2018-02-19T07:30:53.852Z,38.63
2018-02-19T07:33:21.331Z,37.00
2018-02-19T07:35:48.832Z,39.70
2018-02-19T07:38:16.303Z,38.97
2018-02-19T07:40:43.812Z,42.40
2018-02-19T07:43:11.284Z,36.20
2018-02-19T07:45:38.771Z,37.33
2018-02-19T07:48:07.172Z,41.17
2018-02-19T07:50:34.693Z,37.90
2018-02-19T07:53:12.100Z,41.57
2018-02-19T07:55:39.600Z,39.63
2018-02-19T07:58:07.079Z,36.77
2018-02-19T08:00:34.567Z,38.27
2018-02-19T08:03:02.027Z,37.50
2018-02-19T08:05:30.353Z,36.23
2018-02-19T08:07:57.824Z,36.60
2018-02-19T08:10:25.307Z,40.47
2018-02-19T08:12:52.776Z,39.00
2018-02-19T08:15:20.268Z,39.50
2018-02-19T08:17:47.744Z,40.53
2018-02-19T08:20:15.239Z,39.80
2018-02-19T08:22:42.720Z,35.87
2018-02-19T08:25:10.179Z,35.23
2018-02-19T08:27:37.668Z,34.17
2018-02-19T08:30:05.151Z,38.00
2018-02-19T08:32:32.651Z,34.10
2018-02-19T08:35:00.148Z,35.03
2018-02-19T08:37:27.647Z,36.00
2018-02-19T08:40:01.076Z,34.30
2018-02-19T08:42:28.567Z,34.33
2018-02-19T08:44:56.036Z,39.17
2018-02-19T08:47:23.519Z,30.97
2018-02-19T08:49:51.009Z,33.93
2018-02-19T08:52:18.497Z,35.30
2018-02-19T08:54:46.057Z,33.23
2018-02-19T08:57:13.599Z,35.07
2018-02-19T08:59:41.099Z,31.70
2018-02-19T09:02:08.581Z,31.80
2018-02-19T09:04:36.047Z,34.87
2018-02-19T09:07:03.531Z,31.10
2018-02-19T09:09:30.998Z,33.00
2018-02-19T09:11:58.479Z,34.00
2018-02-19T09:14:25.955Z,33.43
2018-02-19T09:16:54.167Z,32.17
2018-02-19T09:19:21.631Z,33.30
2018-02-19T09:21:49.119Z,31.23
2018-02-19T09:24:17.515Z,35.77
2018-02-19T09:26:45.004Z,36.67
2018-02-19T09:29:12.483Z,35.60
2018-02-19T09:31:39.973Z,34.77
2018-02-19T09:34:07.469Z,34.07
2018-02-19T09:36:34.961Z,33.80
2018-02-19T09:39:02.423Z,32.20
2018-02-19T09:41:29.918Z,33.27
2018-02-19T09:43:57.387Z,33.60
2018-02-19T09:46:24.879Z,35.17
2018-02-19T09:48:52.354Z,35.17
2018-02-19T09:51:19.815Z,34.13
2018-02-19T09:53:47.294Z,31.00
2018-02-19T09:56:14.778Z,28.93
2018-02-19T09:58:42.258Z,29.37
2018-02-19T10:01:09.723Z,33.33
2018-02-19T10:03:37.207Z,31.30
2018-02-19T10:06:04.682Z,31.03
2018-02-19T10:08:32.203Z,30.43
2018-02-19T10:10:59.673Z,29.33
2018-02-19T10:13:27.162Z,31.13
2018-02-19T10:15:54.656Z,35.40
2018-02-19T10:18:22.143Z,31.40
2018-02-19T10:20:49.611Z,29.80
2018-02-19T10:23:17.103Z,31.87
2018-02-19T10:25:44.569Z,28.73
2018-02-19T10:28:13.559Z,27.17
2018-02-19T10:30:43.008Z,27.47
2018-02-19T10:33:16.599Z,28.17
2018-02-19T10:35:44.068Z,30.20
2018-02-19T10:38:11.558Z,33.23
2018-02-19T10:40:39.032Z,30.70
2018-02-19T10:43:06.524Z,29.93
2018-02-19T10:45:33.993Z,29.47
2018-02-19T10:48:01.475Z,32.60
2018-02-19T10:50:28.949Z,29.20
2018-02-19T10:52:56.443Z,33.80
2018-02-19T10:55:23.922Z,27.00
2018-02-19T10:57:51.402Z,23.83
2018-02-19T11:00:24.548Z,28.67
2018-02-19T11:02:52.069Z,24.80
2018-02-19T11:05:19.557Z,25.13
2018-02-19T11:07:57.032Z,27.77
2018-02-19T11:10:24.503Z,26.83
2018-02-19T11:12:51.983Z,27.83
2018-02-19T11:15:19.459Z,24.93
2018-02-19T11:17:46.960Z,24.47
2018-02-19T11:20:14.479Z,25.77
2018-02-19T11:22:41.967Z,26.23
2018-02-19T11:25:09.430Z,23.23
2018-02-19T11:27:36.928Z,21.33
2018-02-19T11:30:04.392Z,27.33
2018-02-19T11:32:31.885Z,24.30
2018-02-19T11:34:59.377Z,22.63
2018-02-19T11:37:26.851Z,24.97
2018-02-19T11:39:54.331Z,24.83
2018-02-19T11:42:21.801Z,26.57
2018-02-19T11:44:49.304Z,25.47
2018-02-19T11:47:16.772Z,23.43
2018-02-19T11:49:44.264Z,25.40
2018-02-19T11:52:11.731Z,25.37
2018-02-19T11:54:42.339Z,24.30
2018-02-19T11:57:09.812Z,27.77
2018-02-19T11:59:37.963Z,27.07
2018-02-19T12:02:05.431Z,28.13
2018-02-19T12:04:32.922Z,28.83
2018-02-19T12:07:00.400Z,27.63
2018-02-19T12:09:27.876Z,25.43
2018-02-19T12:11:55.464Z,25.77
2018-02-19T12:14:23.815Z,28.13
2018-02-19T12:16:51.280Z,22.23
2018-02-19T12:19:18.763Z,21.97
2018-02-19T12:21:46.239Z,25.33
2018-02-19T12:24:16.760Z,24.17
2018-02-19T12:26:44.230Z,23.40
2018-02-19T12:29:11.733Z,26.60
2018-02-19T12:31:39.207Z,25.03
2018-02-19T12:34:06.701Z,24.37
2018-02-19T12:36:34.175Z,26.43
2018-02-19T12:39:01.655Z,22.57
2018-02-19T12:41:29.127Z,23.93
2018-02-19T12:43:56.618Z,24.93
2018-02-19T12:46:24.083Z,22.70
2018-02-19T12:48:51.579Z,24.93
2018-02-19T12:51:19.055Z,27.10
2018-02-19T12:53:46.554Z,30.33
2018-02-19T12:56:14.023Z,27.50
2018-02-19T12:58:41.516Z,24.67
2018-02-19T13:01:08.984Z,24.17
2018-02-19T13:03:36.461Z,23.00
2018-02-19T13:06:03.947Z,22.97
2018-02-19T13:08:31.403Z,22.07
2018-02-19T13:10:58.883Z,22.57
2018-02-19T13:13:26.347Z,26.23
2018-02-19T13:15:53.831Z,22.37
2018-02-19T13:18:21.356Z,22.63
2018-02-19T13:20:48.847Z,20.30
2018-02-19T13:23:16.314Z,23.87
2018-02-19T13:25:43.804Z,23.90
2018-02-19T13:28:11.263Z,22.00
2018-02-19T13:30:38.752Z,22.17
2018-02-19T13:33:06.224Z,23.00
2018-02-19T13:35:33.716Z,27.10
2018-02-19T13:38:01.179Z,21.70
2018-02-19T13:40:28.664Z,23.60
2018-02-19T13:42:56.131Z,20.23
2018-02-19T13:45:23.623Z,24.50
2018-02-19T13:47:51.087Z,20.03
2018-02-19T13:50:18.576Z,23.27
2018-02-19T13:52:46.867Z,24.23
2018-02-19T13:55:14.354Z,22.67
2018-02-19T13:57:41.831Z,22.97
2018-02-19T14:00:10.036Z,24.63
2018-02-19T14:02:37.503Z,22.40
2018-02-19T14:05:04.991Z,24.63
2018-02-19T14:07:32.465Z,20.57
2018-02-19T14:09:59.959Z,21.83
2018-02-19T14:12:28.368Z,22.50
2018-02-19T14:14:55.850Z,21.60
2018-02-19T14:17:23.319Z,25.10
2018-02-19T14:19:50.811Z,21.63
2018-02-19T14:22:19.273Z,21.73
2018-02-19T14:24:46.746Z,25.13
2018-02-19T14:27:14.234Z,21.93
2018-02-19T14:29:41.703Z,23.50
2018-02-19T14:32:09.211Z,23.27
2018-02-19T14:34:36.673Z,24.70
2018-02-19T14:37:04.159Z,22.53
2018-02-19T14:39:31.635Z,22.77
2018-02-19T14:42:13.443Z,22.20
2018-02-19T14:44:40.916Z,21.27
2018-02-19T14:47:08.415Z,20.73
2018-02-19T14:49:36.736Z,23.30
2018-02-19T14:52:04.236Z,22.97
2018-02-19T14:54:31.703Z,26.03
2018-02-19T14:56:59.184Z,23.83
2018-02-19T14:59:26.664Z,23.77
2018-02-19T15:01:54.156Z,21.10
2018-02-19T15:04:21.636Z,24.80
2018-02-19T15:06:49.123Z,24.57
2018-02-19T15:09:16.599Z,24.63
2018-02-19T15:11:44.080Z,23.87
2018-02-19T15:14:12.465Z,22.20
2018-02-19T15:16:39.951Z,24.30
2018-02-19T15:19:07.411Z,23.20
2018-02-19T15:21:34.895Z,24.83
2018-02-19T15:24:02.360Z,22.70
2018-02-19T15:26:29.847Z,22.57
2018-02-19T15:28:57.323Z,22.63
2018-02-19T15:31:24.799Z,25.77
2018-02-19T15:33:52.284Z,24.43
2018-02-19T15:36:19.774Z,24.97
2018-02-19T15:38:47.252Z,25.63
2018-02-19T15:41:14.743Z,24.70
2018-02-19T15:43:42.214Z,24.03
2018-02-19T15:46:09.695Z,23.27
2018-02-19T15:48:37.171Z,24.30
2018-02-19T15:51:04.662Z,25.07
2018-02-19T15:53:32.128Z,24.57
2018-02-19T15:55:59.620Z,23.27
2018-02-19T15:58:27.099Z,24.70
2018-02-19T16:00:54.564Z,23.07
2018-02-19T16:03:22.051Z,21.67
2018-02-19T16:05:49.510Z,25.87
2018-02-19T16:08:18.022Z,21.87
2018-02-19T16:10:45.536Z,22.77
2018-02-19T16:13:13.052Z,23.10
2018-02-19T16:15:40.793Z,21.23
2018-02-19T16:18:08.318Z,22.17
2018-02-19T16:20:35.837Z,23.03
2018-02-19T16:23:03.418Z,25.93
2018-02-19T16:25:36.512Z,22.67
2018-02-19T16:28:04.139Z,24.07
2018-02-19T16:30:31.725Z,25.20
2018-02-19T16:32:59.287Z,21.67
2018-02-19T16:35:26.829Z,25.40
2018-02-19T16:37:54.393Z,24.20
2018-02-19T16:40:22.022Z,24.47
2018-02-19T16:42:49.592Z,23.60
2018-02-19T16:45:18.235Z,21.40
2018-02-19T16:50:17.836Z,21.90
2018-02-19T16:55:17.696Z,24.03
2018-02-19T16:57:45.241Z,23.53
2018-02-19T17:00:12.765Z,21.80
2018-02-19T17:05:21.544Z,23.93
2018-02-19T17:07:49.462Z,23.07
2018-02-19T17:10:17.477Z,23.50
2018-02-19T17:12:46.269Z,24.57
2018-02-19T17:15:13.877Z,24.20
2018-02-19T17:17:41.397Z,24.80
2018-02-19T17:20:08.972Z,24.43
2018-02-19T17:22:36.481Z,23.47
2018-02-19T17:25:04.104Z,35.47
2018-02-19T17:27:32.680Z,22.97
2018-02-19T17:30:00.281Z,26.00
2018-02-19T17:32:27.872Z,24.93
2018-02-19T17:34:55.492Z,27.10
2018-02-19T17:37:23.062Z,22.17
2018-02-19T17:39:50.632Z,22.27
2018-02-19T17:42:18.189Z,23.23
2018-02-19T17:44:45.733Z,24.00
2018-02-19T17:47:13.339Z,24.23
2018-02-19T17:49:40.883Z,25.27
2018-02-19T17:52:09.549Z,25.43
2018-02-19T17:54:37.107Z,23.97
2018-02-19T17:57:04.851Z,23.53
2018-02-19T17:59:32.736Z,27.57
2018-02-19T18:02:00.277Z,24.40
2018-02-19T18:04:27.920Z,27.47
2018-02-19T18:06:55.420Z,24.10
2018-02-19T18:09:23.058Z,26.67
2018-02-19T18:11:50.640Z,27.57
2018-02-19T18:14:18.211Z,26.57
2018-02-19T18:16:45.996Z,25.83
2018-02-19T18:19:13.601Z,26.40
2018-02-19T18:24:14.347Z,25.17
2018-02-19T18:26:41.899Z,25.40
2018-02-19T18:29:09.468Z,28.20
2018-02-19T18:31:37.012Z,28.40
2018-02-19T18:34:04.563Z,27.53
2018-02-19T18:36:32.128Z,26.47
2018-02-19T18:41:31.561Z,27.93
2018-02-19T18:43:59.980Z,27.00
2018-02-19T18:46:27.652Z,27.53
2018-02-19T18:48:55.273Z,25.73
2018-02-19T18:51:23.276Z,28.57
2018-02-19T18:53:50.849Z,26.90
2018-02-19T18:56:18.377Z,27.90
2018-02-19T18:58:46.001Z,30.87
2018-02-19T19:01:13.550Z,27.53
2018-02-19T19:03:42.047Z,27.70
2018-02-19T19:06:09.551Z,26.63
2018-02-19T19:08:49.251Z,24.93
2018-02-19T19:11:16.719Z,27.53
2018-02-19T19:13:44.219Z,27.73
2018-02-19T19:16:11.700Z,26.93
2018-02-19T19:18:39.188Z,25.67
2018-02-19T19:21:06.676Z,28.23
2018-02-19T19:23:34.185Z,27.13
2018-02-19T19:26:01.679Z,26.37
2018-02-19T19:28:29.166Z,28.53
2018-02-19T19:30:56.683Z,28.90
2018-02-19T19:33:24.200Z,28.60
2018-02-19T19:35:51.702Z,24.77
2018-02-19T19:38:19.176Z,24.53
2018-02-19T19:40:46.827Z,24.13
2018-02-19T19:43:14.312Z,27.20
2018-02-19T19:45:41.827Z,25.33
2018-02-19T19:48:09.312Z,23.00
2018-02-19T19:50:36.804Z,24.57
2018-02-19T19:53:04.294Z,25.47
2018-02-19T19:55:31.835Z,25.50
2018-02-19T19:57:59.329Z,28.53
2018-02-19T20:00:27.113Z,24.30
2018-02-19T20:02:55.054Z,24.47
2018-02-19T20:05:22.578Z,27.90
2018-02-19T20:07:50.047Z,23.83
2018-02-19T20:10:17.591Z,24.00
2018-02-19T20:12:45.076Z,23.50
2018-02-19T20:15:12.596Z,26.70
2018-02-19T20:17:40.072Z,24.57
2018-02-19T20:20:07.573Z,22.77
2018-02-19T20:22:35.043Z,27.60
2018-02-19T20:25:02.545Z,25.33
2018-02-19T20:27:30.147Z,24.00
2018-02-19T20:29:57.729Z,23.00
2018-02-19T20:32:25.264Z,22.13
2018-02-19T20:34:52.844Z,23.67
2018-02-19T20:37:20.507Z,19.83
2018-02-19T20:39:48.020Z,24.67
2018-02-19T20:42:15.514Z,24.10
2018-02-19T20:44:43.100Z,29.47
2018-02-19T20:47:10.720Z,23.63
2018-02-19T20:49:38.386Z,23.33
2018-02-19T20:52:05.922Z,23.53
2018-02-19T20:54:33.627Z,23.07
2018-02-19T20:57:01.129Z,24.90
2018-02-19T20:59:28.667Z,27.17
2018-02-19T21:01:56.165Z,23.13
2018-02-19T21:04:23.672Z,27.00
2018-02-19T21:06:51.289Z,23.13
2018-02-19T21:09:18.927Z,25.43
2018-02-19T21:11:46.468Z,24.53
2018-02-19T21:14:13.958Z,25.03
2018-02-19T21:16:41.642Z,23.50
2018-02-19T21:19:09.273Z,25.83
2018-02-19T21:21:36.819Z,22.97
2018-02-19T21:24:04.479Z,25.43
2018-02-19T21:26:31.989Z,23.60
2018-02-19T21:28:59.489Z,28.17
2018-02-19T21:31:26.987Z,27.03
2018-02-19T21:33:54.709Z,26.40
2018-02-19T21:36:22.214Z,28.77
2018-02-19T21:38:49.707Z,25.13
2018-02-19T21:41:17.265Z,28.60
2018-02-19T21:43:44.870Z,28.10
2018-02-19T21:46:12.405Z,27.23
2018-02-19T21:48:40.073Z,30.70
2018-02-19T21:51:07.545Z,33.13
2018-02-19T21:53:35.044Z,31.83
2018-02-19T21:56:02.601Z,35.83
2018-02-19T21:58:30.103Z,32.57
2018-02-19T22:00:57.763Z,43.97
2018-02-19T22:03:25.274Z,37.53
2018-02-19T22:05:52.744Z,34.57
2018-02-19T22:08:20.249Z,32.43
2018-02-19T22:10:47.720Z,34.30
2018-02-19T22:13:15.211Z,32.37
2018-02-19T22:15:42.680Z,31.87
2018-02-19T22:18:10.172Z,34.60
2018-02-19T22:20:37.658Z,31.17
2018-02-19T22:23:05.203Z,32.10
2018-02-19T22:25:32.668Z,32.67
2018-02-19T22:28:00.645Z,28.33
2018-02-19T22:30:28.527Z,33.70
2018-02-19T22:32:56.049Z,32.63
2018-02-19T22:35:23.561Z,31.47
2018-02-19T22:37:51.016Z,32.53
2018-02-19T22:40:18.515Z,33.67
2018-02-19T22:42:46.013Z,33.80
2018-02-19T22:45:13.488Z,34.97
2018-02-19T22:47:40.975Z,33.30
2018-02-19T22:50:08.456Z,31.60
2018-02-19T22:52:35.969Z,31.93
2018-02-19T22:55:03.443Z,33.97
2018-02-19T22:57:30.931Z,32.73
2018-02-19T22:59:58.395Z,35.67
2018-02-19T23:02:25.880Z,37.70
2018-02-19T23:04:53.343Z,39.23
2018-02-19T23:07:20.824Z,42.67
2018-02-19T23:09:48.304Z,38.50
2018-02-19T23:12:15.792Z,39.07
2018-02-19T23:14:43.249Z,36.30
2018-02-19T23:17:10.752Z,38.77
2018-02-19T23:19:38.211Z,34.17
2018-02-19T23:22:05.704Z,35.90
2018-02-19T23:24:33.178Z,36.17
2018-02-19T23:27:00.686Z,40.00
2018-02-19T23:29:28.176Z,36.90
2018-02-19T23:31:55.648Z,38.77
2018-02-19T23:34:23.155Z,37.73
2018-02-19T23:36:50.636Z,43.53
2018-02-19T23:39:18.135Z,36.07
2018-02-19T23:41:45.608Z,46.50
2018-02-19T23:44:13.116Z,41.97
2018-02-19T23:46:40.590Z,41.23
2018-02-19T23:49:08.092Z,41.53
2018-02-19T23:51:35.564Z,41.37
2018-02-19T23:54:03.062Z,41.00
2018-02-19T23:56:30.541Z,44.57
2018-02-19T23:58:58.037Z,43.00
